createdAt,value
2023-05-01T00:03:34.453Z,10.33
2023-05-01T00:08:19.780Z,11.97
2023-05-01T00:13:04.560Z,13.70
2023-05-01T00:17:55.108Z,12.43
2023-05-01T00:22:41.474Z,10.33
2023-05-01T00:27:48.550Z,11.37
2023-05-01T00:32:35.036Z,13.63
2023-05-01T00:37:20.862Z,15.30
2023-05-01T00:42:11.403Z,13.50
2023-05-01T00:47:02.400Z,13.57
2023-05-01T00:51:49.758Z,13.37
2023-05-01T00:56:33.821Z,10.43
2023-05-01T01:01:21.748Z,13.00
2023-05-01T01:06:15.830Z,13.63
2023-05-01T01:11:29.474Z,11.73
2023-05-01T01:16:23.161Z,12.27
2023-05-01T01:21:22.889Z,12.27
2023-05-01T01:26:29.112Z,15.37
2023-05-01T01:31:19.117Z,11.27
2023-05-01T01:36:17.177Z,11.53
2023-05-01T01:41:11.334Z,12.60
2023-05-01T01:46:10.626Z,14.03
2023-05-01T01:50:59.331Z,15.20
2023-05-01T01:55:49.020Z,17.70
2023-05-01T02:00:34.979Z,14.80
2023-05-01T02:05:23.784Z,14.13
2023-05-01T02:10:14.255Z,13.53
2023-05-01T02:15:01.082Z,16.13
2023-05-01T02:19:46.493Z,11.93
2023-05-01T02:24:34.656Z,14.30
2023-05-01T02:29:20.180Z,13.17
2023-05-01T02:34:10.654Z,14.97
2023-05-01T02:38:58.381Z,14.63
2023-05-01T02:43:47.106Z,14.40
2023-05-01T02:48:34.766Z,12.77
2023-05-01T02:53:23.049Z,14.27
2023-05-01T02:58:23.692Z,15.80
2023-05-01T03:03:13.443Z,13.67
2023-05-01T03:08:01.544Z,15.10
2023-05-01T03:12:50.190Z,14.43
2023-05-01T03:17:39.780Z,15.03
2023-05-01T03:22:24.555Z,20.10
2023-05-01T03:27:12.982Z,21.73
2023-05-01T03:32:00.562Z,22.00
2023-05-01T03:36:53.906Z,26.17
2023-05-01T03:41:39.509Z,23.33
2023-05-01T03:46:47.377Z,26.53
2023-05-01T03:51:47.671Z,24.30
2023-05-01T03:56:35.737Z,25.00
2023-05-01T04:01:24.401Z,22.50
2023-05-01T04:06:09.774Z,19.93
2023-05-01T04:10:57.917Z,17.17
2023-05-01T04:15:46.876Z,16.57
2023-05-01T04:20:34.192Z,17.73
2023-05-01T04:25:24.015Z,15.90
2023-05-01T04:30:13.659Z,14.67
2023-05-01T04:34:57.817Z,16.80
2023-05-01T04:39:47.721Z,15.13
2023-05-01T04:44:36.023Z,16.40
2023-05-01T04:49:22.763Z,14.83
2023-05-01T04:54:09.389Z,15.80
2023-05-01T04:58:57.772Z,18.53
2023-05-01T05:03:47.257Z,17.20
2023-05-01T05:08:35.002Z,16.57
2023-05-01T05:13:35.739Z,18.90
2023-05-01T05:18:25.949Z,18.03
2023-05-01T05:23:30.946Z,17.43
2023-05-01T05:28:18.579Z,13.43
2023-05-01T05:33:09.606Z,14.23
2023-05-01T05:37:53.692Z,16.83
2023-05-01T05:42:42.806Z,15.13
2023-05-01T05:47:32.528Z,14.33
2023-05-01T05:52:16.803Z,16.80
2023-05-01T05:57:10.059Z,12.23
2023-05-01T06:02:08.771Z,12.93
2023-05-01T06:07:01.697Z,14.70
2023-05-01T06:11:45.328Z,10.97
2023-05-01T06:16:36.388Z,14.20
2023-05-01T06:21:23.074Z,11.97
2023-05-01T06:26:10.840Z,13.97
2023-05-01T06:30:57.745Z,11.77
2023-05-01T06:35:46.789Z,12.43
2023-05-01T06:40:34.959Z,11.13
2023-05-01T06:45:23.558Z,11.63
2023-05-01T06:50:14.135Z,12.27
2023-05-01T06:55:12.750Z,10.07
2023-05-01T07:00:02.280Z,12.57
2023-05-01T07:04:50.740Z,10.07
2023-05-01T07:09:37.735Z,12.60
2023-05-01T07:14:27.304Z,10.93
2023-05-01T07:19:13.819Z,10.00
2023-05-01T07:24:24.032Z,11.97
2023-05-01T07:29:21.489Z,11.10
2023-05-01T07:34:08.529Z,12.33
2023-05-01T07:38:58.023Z,13.13
2023-05-01T07:43:46.656Z,11.67
2023-05-01T07:48:34.106Z,8.00
2023-05-01T07:53:20.352Z,8.03
2023-05-01T07:58:10.897Z,4.93
2023-05-01T08:02:59.704Z,5.70
2023-05-01T08:07:47.506Z,4.80
2023-05-01T08:12:33.148Z,5.80
2023-05-01T08:17:53.547Z,8.23
2023-05-01T08:23:03.818Z,7.63
2023-05-01T08:27:47.556Z,5.90
2023-05-01T08:32:34.978Z,5.83
2023-05-01T08:37:22.153Z,6.17
2023-05-01T08:42:12.029Z,4.93
2023-05-01T08:47:12.659Z,5.17
2023-05-01T08:52:03.418Z,4.50
2023-05-01T08:56:55.008Z,5.40
2023-05-01T09:01:41.169Z,5.77
2023-05-01T09:06:40.336Z,4.50
2023-05-01T09:11:32.372Z,4.80
2023-05-01T09:16:17.486Z,6.93
2023-05-01T09:21:05.327Z,6.80
2023-05-01T09:25:59.153Z,4.73
2023-05-01T09:30:43.045Z,5.90
2023-05-01T09:35:33.147Z,6.73
2023-05-01T09:40:18.651Z,5.00
2023-05-01T09:45:07.808Z,6.80
2023-05-01T09:49:53.954Z,5.20
2023-05-01T09:54:44.579Z,4.63
2023-05-01T09:59:44.355Z,5.43
2023-05-01T10:04:35.110Z,5.00
2023-05-01T10:09:35.528Z,4.63
2023-05-01T10:14:27.046Z,4.37
2023-05-01T10:19:18.131Z,4.40
2023-05-01T10:24:06.185Z,5.27
2023-05-01T10:28:53.736Z,6.93
2023-05-01T10:33:37.541Z,8.87
2023-05-01T10:38:39.424Z,4.37
2023-05-01T10:43:30.355Z,7.23
2023-05-01T10:48:52.976Z,4.33
2023-05-01T10:53:39.153Z,3.77
2023-05-01T10:58:58.115Z,4.40
2023-05-01T11:03:47.687Z,5.03
2023-05-01T11:08:33.865Z,6.50
2023-05-01T11:13:57.571Z,3.90
2023-05-01T11:18:59.193Z,5.77
2023-05-01T11:23:48.961Z,5.63
2023-05-01T11:28:40.078Z,3.37
2023-05-01T11:33:37.508Z,5.00
2023-05-01T11:38:25.425Z,5.35
2023-05-01T11:43:15.236Z,5.53
2023-05-01T11:48:17.673Z,4.30
2023-05-01T11:53:06.527Z,5.55
2023-05-01T11:57:58.777Z,3.40
2023-05-01T12:02:43.235Z,5.40
2023-05-01T12:07:46.204Z,5.43
2023-05-01T12:12:37.193Z,7.97
2023-05-01T12:17:21.721Z,4.20
2023-05-01T12:22:11.272Z,4.25
2023-05-01T12:27:14.973Z,4.85
2023-05-01T12:32:01.379Z,2.95
2023-05-01T12:36:55.199Z,4.22
2023-05-01T12:41:40.662Z,4.75
2023-05-01T12:46:26.257Z,2.65
2023-05-01T12:51:19.180Z,2.97
2023-05-01T12:56:03.480Z,3.78
2023-05-01T13:00:51.874Z,4.35
2023-05-01T13:05:37.293Z,4.22
2023-05-01T13:10:40.017Z,2.42
2023-05-01T13:15:34.006Z,2.95
2023-05-01T13:20:31.700Z,2.13
2023-05-01T13:25:25.702Z,2.35
2023-05-01T13:30:11.415Z,3.90
2023-05-01T13:35:01.512Z,4.47
2023-05-01T13:39:49.114Z,2.80
2023-05-01T13:44:34.597Z,2.65
2023-05-01T13:49:23.010Z,3.53
2023-05-01T13:54:09.239Z,2.15
2023-05-01T13:58:57.029Z,3.80
2023-05-01T14:03:44.978Z,2.45
2023-05-01T14:08:38.274Z,3.90
2023-05-01T14:13:25.209Z,3.03
2023-05-01T14:18:09.972Z,1.95
2023-05-01T14:23:15.343Z,4.47
2023-05-01T14:28:02.529Z,1.88
2023-05-01T14:32:48.857Z,8.27
2023-05-01T14:37:40.501Z,2.47
2023-05-01T14:42:26.525Z,2.73
2023-05-01T14:47:14.996Z,2.43
2023-05-01T14:52:01.558Z,6.97
2023-05-01T14:56:51.077Z,2.97
2023-05-01T15:01:54.329Z,2.53
2023-05-01T15:06:43.933Z,2.70
2023-05-01T15:11:30.602Z,4.20
2023-05-01T15:16:16.578Z,2.93
2023-05-01T15:21:04.539Z,3.50
2023-05-01T15:25:53.425Z,2.90
2023-05-01T15:30:45.890Z,3.13
2023-05-01T15:35:29.497Z,2.77
2023-05-01T15:40:23.205Z,2.87
2023-05-01T15:45:08.245Z,3.47
2023-05-01T15:49:54.651Z,3.43
2023-05-01T15:54:47.225Z,2.77
2023-05-01T15:59:32.372Z,5.27
2023-05-01T16:04:18.031Z,3.30
2023-05-01T16:09:05.626Z,2.77
2023-05-01T16:13:56.061Z,9.20
2023-05-01T16:18:43.315Z,5.03
2023-05-01T16:23:30.042Z,3.90
2023-05-01T16:28:19.983Z,3.67
2023-05-01T16:33:06.812Z,2.87
2023-05-01T16:37:54.226Z,4.10
2023-05-01T16:42:40.864Z,4.43
2023-05-01T16:47:33.229Z,19.60
2023-05-01T16:52:17.861Z,4.77
2023-05-01T16:57:05.686Z,6.63
2023-05-01T17:01:54.322Z,4.70
2023-05-01T17:06:41.140Z,3.77
2023-05-01T17:11:31.973Z,2.80
2023-05-01T17:16:20.061Z,5.23
2023-05-01T17:21:06.917Z,4.70
2023-05-01T17:25:52.298Z,3.80
2023-05-01T17:30:41.594Z,5.83
2023-05-01T17:35:29.086Z,6.77
2023-05-01T17:40:18.702Z,7.10
2023-05-01T17:45:10.103Z,3.87
2023-05-01T17:49:56.690Z,4.43
2023-05-01T17:54:42.283Z,4.00
2023-05-01T17:59:30.711Z,5.13
2023-05-01T18:04:20.174Z,5.50
2023-05-01T18:09:08.702Z,3.90
2023-05-01T18:13:53.650Z,4.37
2023-05-01T18:18:44.732Z,3.13
2023-05-01T18:23:29.321Z,3.20
2023-05-01T18:28:18.582Z,5.37
2023-05-01T18:33:34.743Z,5.00
2023-05-01T18:38:26.316Z,5.63
2023-05-01T18:43:14.227Z,3.50
2023-05-01T18:48:01.703Z,4.20
2023-05-01T18:52:51.611Z,4.73
2023-05-01T18:57:38.491Z,4.10
2023-05-01T19:02:28.409Z,3.90
2023-05-01T19:07:13.941Z,2.63
2023-05-01T19:12:01.137Z,3.93
2023-05-01T19:16:51.599Z,4.97
2023-05-01T19:21:38.316Z,3.00
2023-05-01T19:26:29.391Z,4.43
2023-05-01T19:31:14.989Z,6.20
2023-05-01T19:36:01.612Z,4.80
2023-05-01T19:40:50.962Z,4.97
2023-05-01T19:45:38.682Z,4.40
2023-05-01T19:51:10.838Z,5.57
2023-05-01T19:56:05.383Z,8.70
2023-05-01T20:00:48.965Z,7.47
2023-05-01T20:05:43.081Z,6.07
2023-05-01T20:10:27.150Z,6.63
2023-05-01T20:15:17.269Z,4.87
2023-05-01T22:52:22.281Z,8.20
2023-05-01T23:11:43.956Z,7.20
2023-05-01T23:40:23.196Z,8.33
2023-05-01T23:45:35.787Z,9.03
2023-05-01T23:50:45.001Z,7.30
2023-05-01T23:55:34.309Z,8.67
